Time;durP1;ratioP1;P1;durP2;ratioP2;P2;SDS_P1;SDS_P2;PMS_P1;PMS_P2;Temp;Humidity;BMP_temperature;BMP_pressure;BME280_temperature;BME280_humidity;BME280_pressure;Samples;Min_cycle;Max_cycle;Signal;HPM_P1;HPM_P2
2021/10/30 00:01:00;;;;;;;63.07;34.20;;;5.10;94.70;;;3.63;97.83;97660.34;5090542;28;20545;-72
2021/10/30 00:03:28;;;;;;;52.60;32.87;;;5.10;94.70;;;3.65;97.46;97655.66;5087700;28;20554;-73
2021/10/30 00:05:56;;;;;;;57.20;33.50;;;5.20;94.30;;;3.74;97.71;97645.72;5088935;28;20610;-73
2021/10/30 00:08:24;;;;;;;62.63;34.63;;;5.20;94.50;;;3.78;97.25;97651.56;5092696;28;21323;-74
2021/10/30 00:10:51;;;;;;;61.33;34.43;;;5.20;94.30;;;3.75;98.02;97646.56;5091477;28;20987;-74
2021/10/30 00:13:18;;;;;;;55.30;33.77;;;5.20;94.40;;;3.85;96.76;97646.31;5087764;28;20536;-73
2021/10/30 00:15:45;;;;;;;60.43;36.30;;;5.30;94.00;;;3.79;97.23;97645.19;5085214;28;20453;-74
2021/10/30 00:18:12;;;;;;;61.80;33.57;;;5.30;93.50;;;3.84;97.40;97648.16;5087686;28;20486;-73
2021/10/30 00:20:40;;;;;;;57.13;34.80;;;5.20;94.30;;;3.79;97.18;97653.22;5121491;27;20454;-73
2021/10/30 00:23:07;;;;;;;60.37;34.77;;;5.30;93.90;;;3.68;98.16;97647.28;5087812;28;20644;-73
2021/10/30 00:25:34;;;;;;;64.33;36.87;;;5.20;94.20;;;3.22;98.01;97572.53;5085497;28;20467;-74
2021/10/30 00:28:01;;;;;;;58.07;34.87;;;5.20;94.50;;;3.62;98.50;97652.50;5091905;28;20563;-74
2021/10/30 00:30:28;;;;;;;53.80;31.53;;;5.20;94.80;;;3.81;97.35;97659.19;5086533;28;20456;-73
2021/10/30 00:32:55;;;;;;;53.50;33.07;;;5.20;94.60;;;3.73;97.43;97649.41;5089412;28;20453;-73
2021/10/30 00:35:22;;;;;;;56.23;33.67;;;5.20;94.10;;;3.68;98.21;97657.16;5088281;28;20464;-73
2021/10/30 00:37:50;;;;;;;58.53;34.43;;;5.20;94.40;;;3.54;98.65;97650.72;5088894;28;20527;-73
2021/10/30 00:40:17;;;;;;;60.60;33.00;;;5.10;95.10;;;3.64;97.82;97643.31;5087477;28;20456;-73
2021/10/30 00:42:44;;;;;;;53.57;33.23;;;5.10;95.40;;;3.71;98.29;97645.25;5092394;28;20452;-73
2021/10/30 00:45:12;;;;;;;56.53;32.00;;;5.20;94.80;;;3.67;98.39;97645.63;5084441;28;20947;-74
2021/10/30 00:47:38;;;;;;;64.07;35.57;;;5.20;94.80;;;3.64;97.83;97635.28;5089051;28;20563;-74
2021/10/30 00:50:07;;;;;;;49.13;31.27;;;5.20;94.50;;;3.44;98.99;97640.31;5089375;28;20465;-73
2021/10/30 00:52:35;;;;;;;55.83;32.20;;;5.00;95.50;;;3.51;98.88;97629.72;5089616;28;21008;-74
2021/10/30 00:55:04;;;;;;;55.70;31.90;;;5.00;96.30;;;3.67;98.59;97642.94;5086762;28;20547;-76
2021/10/30 00:57:34;;;;;;;53.57;31.50;;;5.10;95.70;;;3.71;98.07;97639.91;5087723;28;20447;-74
2021/10/30 01:00:08;;;;;;;58.27;34.40;;;5.10;94.60;;;3.54;98.34;97640.06;5087911;28;20552;-73
2021/10/30 01:02:35;;;;;;;61.27;36.77;;;5.10;95.00;;;3.59;98.17;97640.38;5088371;28;20541;-72
2021/10/30 01:05:03;;;;;;;55.17;33.67;;;5.10;95.20;;;3.54;98.37;97648.06;5089715;28;20485;-73
2021/10/30 01:07:31;;;;;;;53.90;31.40;;;5.00;95.00;;;3.54;97.89;97640.06;5085486;28;20651;-73
2021/10/30 01:09:58;;;;;;;51.37;32.20;;;5.10;94.50;;;3.60;98.29;97634.00;5087973;28;20464;-73
2021/10/30 01:12:27;;;;;;;58.30;35.03;;;5.10;94.80;;;3.45;98.08;97641.97;5087666;28;20783;-74
2021/10/30 01:14:55;;;;;;;47.63;30.47;;;5.00;94.70;;;3.65;98.01;97650.31;5081699;28;20456;-73
2021/10/30 01:17:22;;;;;;;50.90;31.67;;;5.00;95.40;;;3.56;98.42;97638.03;5086889;28;20885;-74
2021/10/30 01:19:53;;;;;;;53.13;32.03;;;5.00;94.90;;;3.44;99.13;97644.81;5087201;28;20476;-73
2021/10/30 01:22:22;;;;;;;50.23;32.20;;;4.90;95.20;;;3.46;98.82;97640.13;5086981;28;20466;-73
2021/10/30 01:24:49;;;;;;;51.73;32.40;;;5.00;95.00;;;3.40;98.53;97631.81;5082990;28;20459;-73
2021/10/30 01:27:17;;;;;;;49.57;32.83;;;4.90;95.10;;;3.53;98.50;97627.72;5080764;28;20480;-73
2021/10/30 01:29:44;;;;;;;43.57;30.50;;;5.00;94.70;;;3.49;97.51;97621.06;5085175;28;20443;-74
2021/10/30 01:32:11;;;;;;;50.23;31.53;;;5.00;94.10;;;3.56;97.54;97611.31;5088439;28;20918;-74
2021/10/30 01:34:38;;;;;;;47.60;30.70;;;5.10;94.00;;;3.59;97.93;97616.31;5087893;28;20896;-73
2021/10/30 01:37:07;;;;;;;45.73;30.67;;;5.10;94.20;;;3.62;97.11;97605.25;5085283;28;20968;-73
2021/10/30 01:39:34;;;;;;;54.23;32.13;;;5.10;93.70;;;3.64;97.02;97600.56;5081477;28;20479;-73
2021/10/30 01:42:01;;;;;;;45.13;29.57;;;5.10;93.60;;;3.87;95.75;97601.53;5087331;28;20975;-73
2021/10/30 01:44:28;;;;;;;40.80;28.20;;;5.20;93.20;;;3.68;96.64;97601.84;5085029;28;20545;-72
2021/10/30 01:47:00;;;;;;;48.73;29.87;;;5.10;93.10;;;3.57;97.13;97602.31;5085576;28;20462;-73
2021/10/30 01:49:29;;;;;;;50.97;30.50;;;5.10;93.30;;;3.49;97.36;97592.53;5083224;28;20499;-71
2021/10/30 01:51:56;;;;;;;45.70;30.20;;;5.00;93.60;;;3.54;97.52;97594.63;5084030;28;20588;-73
2021/10/30 01:54:25;;;;;;;48.67;31.23;;;5.00;93.70;;;3.38;97.69;97591.09;5088343;28;20583;-72
2021/10/30 01:56:52;;;;;;;50.70;30.90;;;4.90;93.70;;;3.46;97.91;97595.53;5085364;28;20471;-73
2021/10/30 01:59:20;;;;;;;44.97;29.33;;;4.90;94.50;;;3.60;97.60;97595.75;5087094;28;20463;-74
2021/10/30 02:01:47;;;;;;;45.93;31.27;;;5.00;94.00;;;3.65;96.53;97602.22;5085536;28;20840;-73
2021/10/30 02:04:14;;;;;;;47.40;30.13;;;5.00;93.50;;;3.70;95.57;97601.69;5085618;28;20451;-73
2021/10/30 02:06:41;;;;;;;45.87;29.60;;;5.10;92.50;;;3.67;95.69;97597.53;5086596;28;20527;-73
2021/10/30 02:09:08;;;;;;;43.47;29.63;;;5.10;92.60;;;3.48;96.35;97592.69;5076909;28;20490;-73
2021/10/30 02:11:36;;;;;;;45.73;30.07;;;5.00;92.70;;;3.43;97.45;97593.22;5085734;28;20468;-72
2021/10/30 02:14:03;;;;;;;48.87;32.13;;;5.00;93.10;;;3.21;96.84;97566.38;5084573;28;20458;-73
2021/10/30 02:16:30;;;;;;;50.10;32.20;;;4.90;92.70;;;3.24;97.41;97581.19;5086876;28;20491;-73
2021/10/30 02:18:57;;;;;;;44.40;30.07;;;4.80;93.10;;;3.22;97.67;97588.56;5081490;28;20536;-73
2021/10/30 02:21:24;;;;;;;48.40;29.10;;;4.80;93.20;;;3.23;97.55;97568.84;5085328;28;20468;-73
2021/10/30 02:23:52;;;;;;;42.30;29.37;;;4.80;93.40;;;3.23;97.38;97571.53;5088108;28;20460;-74
2021/10/30 02:26:19;;;;;;;44.93;27.33;;;4.80;93.40;;;3.31;97.26;97571.47;5084681;28;20466;-74
2021/10/30 02:28:47;;;;;;;42.73;28.90;;;4.80;93.60;;;3.19;97.26;97565.75;5082886;28;20465;-73
2021/10/30 02:31:14;;;;;;;41.17;27.53;;;4.80;93.20;;;3.23;97.21;97575.03;5082903;28;20557;-72
2021/10/30 02:33:41;;;;;;;43.67;30.47;;;4.70;93.50;;;3.06;97.83;97569.00;5086444;28;21047;-73
2021/10/30 02:36:08;;;;;;;42.27;28.57;;;4.70;93.50;;;3.09;97.58;97562.47;5083354;28;20465;-73
2021/10/30 02:38:35;;;;;;;40.40;27.47;;;4.60;94.00;;;3.06;97.72;97552.97;5090411;28;20487;-73
2021/10/30 02:41:03;;;;;;;42.00;29.83;;;4.60;93.80;;;3.01;97.85;97568.69;5087295;28;20549;-74
2021/10/30 02:43:30;;;;;;;45.73;29.67;;;4.60;94.30;;;3.10;98.69;97559.59;5107851;28;20864;-74
2021/10/30 02:45:58;;;;;;;42.50;30.30;;;4.60;94.90;;;3.00;98.41;97560.88;5094872;28;20898;-72
2021/10/30 02:48:25;;;;;;;52.93;31.60;;;4.50;94.50;;;3.01;98.45;97571.38;5091366;28;21009;-72
2021/10/30 02:50:52;;;;;;;48.00;29.83;;;4.60;95.00;;;2.99;98.78;97576.06;5089908;28;20550;-72
2021/10/30 02:53:19;;;;;;;45.17;29.83;;;4.50;95.60;;;3.07;98.21;97559.16;5090527;28;20559;-73
2021/10/30 02:55:46;;;;;;;42.60;29.27;;;4.60;94.50;;;3.22;97.77;97556.53;5108160;28;20546;-73
2021/10/30 02:58:13;;;;;;;37.43;26.50;;;4.60;94.60;;;3.19;97.38;97556.88;5086232;28;20460;-73
2021/10/30 03:00:40;;;;;;;37.80;26.83;;;4.60;93.80;;;3.20;96.60;97553.22;5085370;28;20435;-73
2021/10/30 03:03:08;;;;;;;38.33;26.20;;;4.60;93.00;;;3.14;97.18;97564.63;5089759;28;20490;-73
2021/10/30 03:05:35;;;;;;;39.93;27.07;;;4.60;93.30;;;3.00;96.82;97553.69;5092170;28;20463;-73
2021/10/30 03:08:02;;;;;;;36.53;26.60;;;4.60;93.00;;;2.89;98.14;97560.28;5090559;28;20467;-72
2021/10/30 03:10:29;;;;;;;41.33;28.30;;;4.40;93.80;;;2.82;98.54;97562.84;5091058;28;20487;-73
2021/10/30 03:12:56;;;;;;;42.00;29.53;;;4.40;94.60;;;2.86;98.35;97547.28;5090593;28;20455;-72
2021/10/30 03:15:23;;;;;;;39.07;27.17;;;4.40;94.60;;;2.82;98.96;97546.81;5090418;28;20497;-72
2021/10/30 03:17:50;;;;;;;43.33;29.40;;;4.40;95.70;;;2.84;99.19;97546.63;5088841;28;20474;-75
2021/10/30 03:20:19;;;;;;;47.60;29.10;;;4.40;95.70;;;2.98;98.10;97548.53;5107441;28;20463;-73
2021/10/30 03:22:46;;;;;;;36.30;26.03;;;4.50;95.30;;;2.94;97.88;97517.03;5068933;28;20466;-73
2021/10/30 03:25:15;;;;;;;39.17;27.73;;;4.50;94.30;;;3.01;96.95;97539.34;5121697;27;20455;-72
2021/10/30 03:27:42;;;;;;;36.60;25.60;;;4.60;92.70;;;2.92;97.09;97545.75;5089988;28;20472;-73
2021/10/30 03:30:11;;;;;;;40.70;27.90;;;4.50;93.10;;;2.97;97.43;97540.72;5093896;28;20814;-72
2021/10/30 03:32:38;;;;;;;38.20;27.70;;;4.50;93.40;;;3.18;96.69;97541.88;5091512;28;20458;-73
2021/10/30 03:35:06;;;;;;;38.10;28.80;;;4.60;93.70;;;3.15;96.54;97550.25;5091004;28;20452;-74
2021/10/30 03:37:35;;;;;;;40.90;27.50;;;4.60;92.80;;;3.15;97.07;97550.25;5086599;28;20456;-74
2021/10/30 03:40:04;;;;;;;39.10;26.87;;;4.60;93.00;;;3.07;96.48;97540.47;5086295;28;20453;-74
2021/10/30 03:42:31;;;;;;;38.87;26.47;;;4.60;92.80;;;3.25;96.42;97550.81;5089645;28;20564;-73
2021/10/30 03:44:58;;;;;;;36.63;25.33;;;4.60;92.70;;;2.99;96.69;97552.03;5088341;28;20468;-74
2021/10/30 03:47:25;;;;;;;36.43;26.37;;;4.60;92.40;;;2.92;96.80;97551.06;5086449;28;20506;-74
2021/10/30 03:49:53;;;;;;;37.37;26.83;;;4.50;92.70;;;2.87;97.10;97548.94;5088624;28;20506;-73
2021/10/30 03:52:19;;;;;;;41.40;26.83;;;4.40;93.10;;;2.99;96.56;97549.38;5086363;28;20490;-74
2021/10/30 03:54:48;;;;;;;36.17;26.00;;;4.50;93.10;;;2.94;97.39;97538.38;5089493;28;20452;-74
2021/10/30 03:57:15;;;;;;;35.70;26.47;;;4.40;93.10;;;2.90;96.71;97527.25;5089718;28;20528;-73
2021/10/30 03:59:42;;;;;;;36.17;26.60;;;4.40;92.60;;;2.87;96.82;97524.91;5089461;28;20454;-73
2021/10/30 04:02:09;;;;;;;36.23;25.50;;;4.40;92.60;;;2.90;96.79;97535.25;5092718;28;20455;-74
2021/10/30 04:04:36;;;;;;;35.53;25.33;;;4.40;92.60;;;2.84;96.76;97533.28;5089368;28;20897;-74
2021/10/30 04:07:03;;;;;;;32.20;22.80;;;4.40;92.60;;;2.75;96.75;97519.19;5090045;28;20493;-73
2021/10/30 04:09:31;;;;;;;31.43;21.87;;;4.40;92.60;;;2.77;97.29;97533.16;5086580;28;20479;-73
2021/10/30 04:11:59;;;;;;;31.70;23.67;;;4.30;92.90;;;2.71;97.53;97520.53;5099197;28;20531;-74
2021/10/30 04:14:26;;;;;;;33.97;25.27;;;4.30;93.10;;;2.69;97.32;97510.03;5090362;28;20528;-73
2021/10/30 04:16:53;;;;;;;33.30;25.23;;;4.30;93.40;;;2.61;97.87;97517.28;5086339;28;20815;-74
2021/10/30 04:19:20;;;;;;;34.30;23.33;;;4.20;93.40;;;2.71;97.59;97496.53;5090009;27;20468;-74
2021/10/30 04:21:47;;;;;;;40.10;26.57;;;4.20;93.50;;;2.73;97.29;97499.84;5090513;28;20521;-74
2021/10/30 04:24:14;;;;;;;35.03;24.63;;;4.30;93.10;;;2.67;97.61;97501.38;5086845;28;20463;-74
2021/10/30 04:26:41;;;;;;;34.33;24.60;;;4.20;93.60;;;2.67;97.55;97495.25;5091340;28;20514;-74
2021/10/30 04:29:10;;;;;;;38.63;26.87;;;4.20;93.30;;;2.68;97.67;97495.03;5086747;28;20538;-73
2021/10/30 04:31:37;;;;;;;35.53;24.73;;;4.20;93.40;;;2.63;97.67;97488.56;5089680;28;20479;-75
2021/10/30 04:34:05;;;;;;;37.80;25.23;;;4.20;93.50;;;2.70;97.70;97484.22;5088025;28;20457;-74
2021/10/30 04:36:35;;;;;;;39.70;26.40;;;4.20;94.20;;;2.75;97.29;97479.16;5088481;28;20459;-73
2021/10/30 04:39:04;;;;;;;40.20;27.33;;;4.30;93.70;;;2.79;97.42;97482.31;5087598;28;21117;-73
2021/10/30 04:41:31;;;;;;;38.63;25.97;;;4.30;93.90;;;2.84;97.44;97490.59;5088873;28;20546;-73
2021/10/30 04:43:58;;;;;;;36.70;26.10;;;4.30;93.30;;;2.73;97.28;97473.19;5093570;28;20491;-73
2021/10/30 04:46:26;;;;;;;41.87;27.60;;;4.30;93.30;;;2.69;98.03;97471.88;5087733;28;20492;-74
2021/10/30 04:48:53;;;;;;;42.50;28.70;;;4.20;94.20;;;2.69;98.28;97456.69;5089613;28;20470;-71
2021/10/30 04:51:21;;;;;;;45.10;28.60;;;4.20;94.30;;;2.73;98.45;97457.16;5087791;28;20553;-73
2021/10/30 04:53:48;;;;;;;41.47;27.20;;;4.20;95.20;;;2.83;97.79;97463.09;5089313;28;20455;-73
2021/10/30 04:56:15;;;;;;;39.63;28.20;;;4.30;94.40;;;2.98;97.14;97459.63;5087534;28;20474;-75
2021/10/30 04:58:44;;;;;;;40.67;28.37;;;4.40;94.00;;;2.92;97.45;97449.66;5088595;28;20568;-74
2021/10/30 05:01:13;;;;;;;39.50;26.30;;;4.40;93.60;;;2.93;97.15;97444.16;5087704;28;20543;-74
2021/10/30 05:03:42;;;;;;;36.50;25.53;;;4.50;93.50;;;3.05;97.19;97449.88;5085528;28;20452;-72
2021/10/30 05:06:10;;;;;;;41.23;27.93;;;4.50;93.80;;;2.85;97.60;97446.06;5087920;28;20459;-75
2021/10/30 05:08:38;;;;;;;38.30;27.70;;;4.40;93.60;;;3.05;97.40;97438.41;5089414;28;20501;-74
2021/10/30 05:11:07;;;;;;;40.40;27.93;;;4.50;94.40;;;3.02;97.39;97444.91;5088241;28;20977;-73
2021/10/30 05:13:35;;;;;;;38.17;26.33;;;4.50;93.50;;;3.06;97.18;97435.53;5117082;27;20464;-72
2021/10/30 05:16:02;;;;;;;39.87;29.17;;;4.60;93.30;;;3.01;97.72;97431.75;5082186;28;20452;-73
2021/10/30 05:18:29;;;;;;;41.40;27.90;;;4.60;93.40;;;2.61;97.52;97368.75;5085240;28;20449;-74
2021/10/30 05:20:57;;;;;;;39.50;28.03;;;4.50;93.70;;;2.83;98.41;97435.56;5086038;28;20455;-72
2021/10/30 05:23:24;;;;;;;49.33;31.50;;;4.40;94.60;;;2.92;98.70;97431.00;5067994;28;20556;-73
2021/10/30 05:25:52;;;;;;;47.50;31.13;;;4.40;95.10;;;3.17;98.35;97441.44;5085124;28;20456;-72
2021/10/30 05:28:21;;;;;;;45.03;29.67;;;4.50;94.70;;;3.16;97.25;97442.47;5083900;28;20476;-73
2021/10/30 05:30:49;;;;;;;42.97;29.17;;;4.60;93.50;;;3.04;97.58;97429.53;5083339;28;20451;-71
2021/10/30 05:33:17;;;;;;;45.30;30.40;;;4.60;93.90;;;3.03;97.72;97416.38;5086141;28;20535;-69
2021/10/30 05:35:44;;;;;;;44.60;29.77;;;4.60;94.00;;;3.13;97.48;97414.28;5088007;28;20553;-70
2021/10/30 05:38:15;;;;;;;40.30;28.17;;;4.60;94.40;;;3.25;97.22;97423.50;5099955;28;20486;-69
2021/10/30 05:40:42;;;;;;;43.57;29.57;;;4.70;93.50;;;3.19;96.28;97410.03;5086866;28;20461;-71
2021/10/30 05:43:11;;;;;;;42.40;29.37;;;4.70;92.60;;;3.10;96.15;97411.97;5087873;28;20476;-70
2021/10/30 05:45:39;;;;;;;47.10;30.60;;;4.70;92.30;;;3.28;96.40;97405.44;5084911;28;20565;-71
2021/10/30 05:48:07;;;;;;;37.67;28.17;;;4.70;93.00;;;3.16;95.73;97407.75;5081848;28;20547;-69
2021/10/30 05:50:35;;;;;;;39.77;29.17;;;4.70;92.10;;;3.19;96.28;97407.38;5090035;28;20551;-70
2021/10/30 05:53:04;;;;;;;36.93;27.20;;;4.70;92.70;;;3.20;95.86;97401.03;5086734;28;20851;-70
2021/10/30 05:55:33;;;;;;;39.47;28.03;;;4.70;92.30;;;3.06;96.55;97408.84;5091045;28;20795;-70
2021/10/30 05:58:00;;;;;;;40.97;27.90;;;4.60;92.50;;;2.95;96.73;97398.59;5103032;28;20473;-70
2021/10/30 06:00:29;;;;;;;44.47;30.13;;;4.50;92.70;;;2.94;97.34;97388.94;5090504;28;20461;-70
2021/10/30 06:02:59;;;;;;;39.73;28.33;;;4.50;93.10;;;2.88;97.84;97390.50;5104726;28;20994;-71
2021/10/30 06:05:26;;;;;;;44.07;29.10;;;4.50;93.50;;;3.04;97.38;97373.50;5091643;28;20450;-72
2021/10/30 06:07:54;;;;;;;44.47;29.83;;;4.50;94.00;;;3.02;96.97;97374.69;5089882;28;20456;-70
2021/10/30 06:10:21;;;;;;;42.33;28.63;;;4.60;92.70;;;3.13;96.45;97384.91;5091952;28;20480;-71
2021/10/30 06:12:50;;;;;;;43.13;30.10;;;4.60;92.60;;;3.19;96.35;97375.34;5091221;28;20465;-71
2021/10/30 06:15:17;;;;;;;40.30;28.03;;;4.70;92.50;;;3.12;96.81;97369.91;5101940;27;20885;-70
2021/10/30 06:17:44;;;;;;;40.07;29.60;;;4.70;92.60;;;3.02;96.82;97370.19;5088699;28;20489;-71
2021/10/30 06:20:12;;;;;;;45.80;28.00;;;4.60;92.20;;;3.02;96.91;97364.00;5083590;28;21010;-73
2021/10/30 06:22:42;;;;;;;40.90;27.00;;;4.60;92.90;;;3.03;97.26;97366.50;5088275;28;20541;-72
2021/10/30 06:25:11;;;;;;;43.63;29.50;;;4.50;93.70;;;2.96;96.75;97350.38;5108736;28;20451;-72
2021/10/30 06:27:38;;;;;;;38.13;28.00;;;4.60;93.20;;;3.07;97.20;97362.44;5088135;28;20478;-72
2021/10/30 06:30:09;;;;;;;37.80;27.07;;;4.60;93.10;;;3.10;96.80;97355.91;5087431;28;20479;-71
2021/10/30 06:32:36;;;;;;;36.90;26.83;;;4.60;93.10;;;3.39;95.37;97354.25;5094893;28;20587;-71
2021/10/30 06:35:03;;;;;;;35.17;26.97;;;4.80;92.50;;;3.27;95.53;97345.88;5092137;28;20510;-71
2021/10/30 06:37:30;;;;;;;39.63;27.10;;;4.70;92.00;;;3.38;95.11;97345.41;5094295;28;20463;-71
2021/10/30 06:39:57;;;;;;;37.60;28.13;;;4.80;91.70;;;3.52;95.16;97354.44;5097419;28;20464;-72
2021/10/30 06:42:24;;;;;;;37.93;25.83;;;4.90;91.30;;;3.42;94.32;97353.06;5097107;28;20959;-72
2021/10/30 06:44:51;;;;;;;36.00;27.77;;;4.90;91.10;;;3.72;93.53;97363.69;5120291;27;20449;-71
2021/10/30 06:47:19;;;;;;;38.20;26.53;;;5.10;90.70;;;3.60;93.06;97356.16;5085165;28;20464;-71
2021/10/30 06:49:46;;;;;;;37.70;25.87;;;5.00;90.10;;;3.50;94.18;97350.28;5084720;28;20864;-71
2021/10/30 06:52:13;;;;;;;35.80;25.90;;;4.90;90.80;;;3.42;94.35;97345.88;5092195;28;20528;-71
2021/10/30 06:54:40;;;;;;;36.37;26.70;;;5.00;90.70;;;3.68;93.48;97355.22;5100644;28;20445;-72
2021/10/30 06:57:09;;;;;;;31.90;25.93;;;5.10;90.40;;;3.74;92.52;97361.66;5088651;28;20542;-71
2021/10/30 06:59:37;;;;;;;34.40;26.67;;;5.10;90.10;;;3.82;92.15;97358.88;5085018;28;20562;-71
2021/10/30 07:02:05;;;;;;;32.40;25.33;;;5.20;89.40;;;3.66;92.89;97365.28;5087957;28;20975;-72
2021/10/30 07:04:34;;;;;;;34.27;26.27;;;5.20;89.10;;;3.65;93.47;97352.94;5092389;28;20495;-71
2021/10/30 07:07:01;;;;;;;34.80;25.83;;;5.20;89.30;;;3.72;92.87;97347.66;5088079;28;20472;-71
2021/10/30 07:09:28;;;;;;;37.80;26.33;;;5.20;89.50;;;3.78;93.12;97341.56;5089273;28;20527;-71
2021/10/30 07:11:55;;;;;;;37.20;24.80;;;5.20;88.90;;;3.74;92.61;97340.28;5099826;28;20579;-71
2021/10/30 07:14:22;;;;;;;38.73;26.27;;;5.30;88.00;;;3.69;92.40;97344.34;5092097;28;20552;-71
2021/10/30 07:16:49;;;;;;;42.80;26.77;;;5.20;87.80;;;3.86;92.37;97344.09;5089583;28;20862;-72
2021/10/30 07:19:16;;;;;;;34.63;24.77;;;5.30;88.20;;;3.80;91.38;97350.22;5089188;28;20576;-70
2021/10/30 07:21:45;;;;;;;36.20;26.13;;;5.30;86.20;;;3.65;93.15;97352.94;5083915;28;20466;-72
2021/10/30 07:24:12;;;;;;;36.27;25.63;;;5.20;88.10;;;3.90;92.25;97355.25;5088580;28;20516;-72
2021/10/30 07:26:39;;;;;;;32.57;25.10;;;5.30;88.60;;;3.90;92.26;97352.56;5085242;28;20450;-71
2021/10/30 07:29:06;;;;;;;35.17;24.87;;;5.30;87.60;;;4.10;91.77;97352.78;5082759;28;20511;-70
2021/10/30 07:31:33;;;;;;;31.20;23.93;;;5.40;87.50;;;4.30;89.77;97357.50;5100141;28;20483;-71
2021/10/30 07:34:00;;;;;;;33.33;24.80;;;5.60;86.00;;;4.18;89.71;97346.50;5083856;28;20460;-71
2021/10/30 07:36:27;;;;;;;33.70;25.97;;;5.60;85.40;;;3.94;90.85;97357.38;5083102;28;20549;-72
2021/10/30 07:38:55;;;;;;;31.63;25.30;;;5.50;85.70;;;4.11;90.85;97355.28;5085367;28;21548;-74
2021/10/30 07:41:23;;;;;;;31.30;25.00;;;5.50;85.60;;;4.22;90.15;97335.22;5082413;28;20444;-74
2021/10/30 07:43:53;;;;;;;30.87;24.93;;;5.50;85.70;;;4.19;89.66;97310.72;5084856;28;20455;-73
2021/10/30 07:46:21;;;;;;;29.30;23.67;;;5.60;85.50;;;4.11;89.46;97292.94;5082369;28;20476;-72
2021/10/30 07:48:48;;;;;;;28.13;22.73;;;5.70;84.60;;;4.21;89.79;97319.38;5084905;28;20460;-73
2021/10/30 07:51:15;;;;;;;32.47;25.30;;;5.60;84.30;;;4.39;89.56;97317.03;5080189;28;20536;-73
2021/10/30 07:53:42;;;;;;;29.43;23.23;;;5.70;84.60;;;4.07;89.55;97313.88;5096372;28;21362;-71
2021/10/30 07:56:11;;;;;;;29.23;23.23;;;5.60;84.20;;;4.25;89.78;97293.91;5095516;28;20966;-74
2021/10/30 07:58:40;;;;;;;30.00;23.87;;;5.60;84.70;;;4.21;89.50;97298.81;5097526;28;20539;-73
2021/10/30 08:01:07;;;;;;;31.47;24.50;;;5.70;84.20;;;4.11;90.38;97298.28;5088550;28;20976;-74
2021/10/30 08:03:35;;;;;;;30.97;24.93;;;5.60;84.60;;;4.35;89.21;97285.56;5101092;28;20505;-74
2021/10/30 08:08:44;;;;;;;29.00;22.83;;;5.80;83.90;;;4.58;87.41;97255.88;5091010;28;20460;-73
2021/10/30 08:11:15;;;;;;;27.07;21.97;;;5.90;83.10;;;4.52;87.36;97238.75;5092454;28;20477;-74
2021/10/30 08:13:43;;;;;;;31.50;23.60;;;6.00;82.10;;;4.28;87.48;97191.06;5096933;28;20547;-74
2021/10/30 08:16:13;;;;;;;29.30;23.70;;;6.00;81.90;;;4.67;87.06;97240.50;5091803;28;20976;-73
2021/10/30 08:18:44;;;;;;;27.03;22.77;;;6.10;81.90;;;4.82;86.08;97230.50;5124648;27;20467;-74
2021/10/30 08:21:12;;;;;;;27.70;22.77;;;6.20;81.20;;;4.75;86.31;97234.16;5089991;28;20458;-72
2021/10/30 08:23:39;;;;;;;24.10;21.43;;;6.20;80.90;;;4.97;85.34;97229.53;5092653;28;20531;-72
2021/10/30 08:26:08;;;;;;;26.37;21.90;;;6.30;81.00;;;5.11;86.42;97168.81;5083810;28;20634;-70
2021/10/30 08:28:37;;;;;;;24.97;21.47;;;6.60;83.80;;;5.59;83.38;97205.44;5080184;28;20453;-69
2021/10/30 08:31:04;;;;;;;24.30;20.63;;;6.90;80.10;;;5.36;83.32;97203.91;5087727;28;20510;-69
2021/10/30 08:33:34;;;;;;;25.03;20.97;;;6.80;78.40;;;5.20;83.45;97199.75;5085235;28;20463;-70
2021/10/30 08:36:01;;;;;;;23.90;20.93;;;6.70;78.10;;;5.67;86.37;97205.22;5083788;28;20456;-71
2021/10/30 08:38:28;;;;;;;22.50;20.00;;;6.90;80.90;;;5.85;82.66;97211.88;5085123;28;20462;-71
2021/10/30 08:40:56;;;;;;;22.87;20.47;;;7.10;79.00;;;5.77;81.43;97214.72;5083759;28;20451;-70
2021/10/30 08:43:26;;;;;;;25.07;22.37;;;7.20;76.60;;;5.84;80.76;97217.41;5091691;28;21185;-70
2021/10/30 08:45:57;;;;;;;23.90;20.30;;;7.10;76.40;;;6.83;80.48;97212.22;5085841;28;20506;-70
2021/10/30 08:48:27;;;;;;;22.50;19.73;;;7.80;78.30;;;6.42;77.71;97216.81;5083951;28;20866;-70
2021/10/30 08:50:55;;;;;;;22.33;20.07;;;7.80;73.20;;;6.36;78.01;97217.66;5081821;28;21065;-70
2021/10/30 08:53:25;;;;;;;23.10;20.60;;;7.70;72.90;;;6.84;78.67;97224.59;5083345;28;20475;-69
2021/10/30 08:55:53;;;;;;;23.80;20.27;;;8.00;74.60;;;6.92;75.37;97223.53;5092805;28;20447;-70
2021/10/30 08:58:21;;;;;;;22.60;19.97;;;8.20;71.20;;;6.74;75.72;97237.63;5089807;28;20539;-71
2021/10/30 09:00:51;;;;;;;21.97;19.33;;;8.20;70.40;;;6.69;75.42;97232.06;5097790;28;20529;-70
2021/10/30 09:03:21;;;;;;;26.67;22.50;;;8.10;69.80;;;6.51;76.11;97236.22;5090788;28;20458;-70
2021/10/30 09:05:51;;;;;;;25.47;22.40;;;7.90;70.00;;;6.63;76.21;97241.78;5118145;27;20540;-70
2021/10/30 09:08:21;;;;;;;24.40;21.73;;;8.00;70.10;;;6.62;75.98;97229.41;5086776;28;20513;-72
2021/10/30 09:10:51;;;;;;;26.60;22.10;;;8.00;69.90;;;6.60;75.00;97228.78;5102022;28;20475;-71
2021/10/30 09:13:22;;;;;;;23.20;20.80;;;8.00;69.00;;;6.66;75.65;97219.88;5087079;28;20491;-70
2021/10/30 09:15:51;;;;;;;24.07;21.27;;;8.00;69.40;;;7.07;74.36;97224.13;5085447;28;20455;-70
2021/10/30 09:18:28;;;;;;;24.37;20.87;;;8.20;69.40;;;7.39;73.55;97230.59;5080779;28;20839;-72
2021/10/30 09:20:56;;;;;;;25.37;22.33;;;8.50;69.00;;;7.49;71.76;97230.94;5086194;28;20455;-71
2021/10/30 09:23:27;;;;;;;25.53;21.33;;;8.70;67.40;;;7.55;72.11;97227.41;5081649;28;20456;-71
2021/10/30 09:25:59;;;;;;;23.93;21.33;;;8.70;67.30;;;7.80;72.49;97226.63;5085998;28;20485;-69
2021/10/30 09:28:28;;;;;;;26.00;21.57;;;8.90;67.50;;;8.16;70.91;97229.69;5083190;28;20465;-69
2021/10/30 09:31:01;;;;;;;24.57;22.13;;;9.30;66.90;;;8.07;70.29;97221.06;5117280;27;20971;-71
2021/10/30 09:33:32;;;;;;;27.87;24.10;;;9.30;66.10;;;8.20;69.29;97228.22;5086329;28;21280;-71
2021/10/30 09:36:09;;;;;;;25.77;22.80;;;9.50;65.50;;;8.00;70.82;97209.53;5117654;27;20784;-71
2021/10/30 09:38:38;;;;;;;25.80;21.40;;;9.30;65.70;;;8.32;70.09;97217.56;5086822;28;20849;-70
2021/10/30 09:41:23;;;;;;;23.57;21.00;;;9.40;66.00;;;8.52;68.60;97213.88;5084806;28;20547;-71
2021/10/30 09:43:57;;;;;;;24.20;21.67;;;9.70;64.80;;;8.52;67.79;97203.09;5097572;28;20449;-71
2021/10/30 09:46:25;;;;;;;23.40;21.00;;;9.90;63.70;;;8.57;67.13;97192.47;5094835;28;21017;-71
2021/10/30 09:48:54;;;;;;;23.40;19.27;;;9.90;63.30;;;8.77;67.15;97193.13;5078997;28;20491;-72
2021/10/30 09:51:32;;;;;;;23.63;21.10;;;10.00;62.80;;;8.93;66.82;97196.25;5081639;28;20481;-70
2021/10/30 09:54:00;;;;;;;23.83;21.27;;;10.10;62.30;;;9.11;65.89;97191.91;5083221;28;20452;-70
2021/10/30 09:56:41;;;;;;;23.63;21.23;;;10.20;61.40;;;9.30;64.98;97195.41;5084017;28;20900;-71
2021/10/30 09:59:10;;;;;;;22.77;20.47;;;10.40;61.20;;;9.37;64.27;97189.94;5085701;28;20482;-70
2021/10/30 10:01:38;;;;;;;24.07;21.57;;;10.60;60.30;;;9.54;64.27;97173.91;5081987;28;20460;-71
2021/10/30 10:04:07;;;;;;;23.40;20.90;;;10.70;59.80;;;9.57;64.01;97179.69;5084093;28;20456;-71
2021/10/30 10:06:35;;;;;;;22.67;20.27;;;10.80;59.50;;;10.19;63.84;97170.41;5083005;28;20455;-71
2021/10/30 10:09:03;;;;;;;23.33;20.63;;;11.10;60.10;;;9.89;62.39;97165.09;5082819;28;20467;-71
2021/10/30 10:11:31;;;;;;;22.53;20.13;;;11.20;58.10;;;9.99;62.44;97153.75;5082413;28;21173;-71
2021/10/30 10:13:58;;;;;;;22.20;19.90;;;11.20;58.00;;;9.96;61.35;97111.03;5085307;28;20462;-71
2021/10/30 10:16:26;;;;;;;21.80;19.50;;;11.40;57.60;;;10.45;61.00;97146.75;5082662;28;20456;-72
2021/10/30 10:18:56;;;;;;;20.97;18.70;;;11.50;57.70;;;10.27;60.58;97149.53;5087664;28;20468;-72
2021/10/30 10:21:27;;;;;;;21.03;18.87;;;11.50;56.60;;;10.51;58.98;97149.53;5082089;28;20556;-69
2021/10/30 10:23:55;;;;;;;19.17;17.17;;;11.60;56.20;;;10.40;58.75;97137.66;5083488;28;20463;-71